Haja K — 3FVK3 — position and weather

sailwx.info

Track history (hours):
 
Tides and Currents Weather Stations Pressure Air Temp Water Temp Dewpoint Dewpoint Depression Visibility Wind Speed Wind Dir Waves Ship Positions

Haja K

Last reported at 2014-Oct-09 19:30 UTC. Time now 2014-Oct-20 08:21 UTC.
Position N 31°14' E 029°46'.
Warning: this ship's position is 10 days out of date.

Length 131 m.

Type: Cargo ship. MMSI: 357882000.

Date/timePositionNaut miles runAvg speedWind from/ knotsBaromVisibWave heightAir tempDewpointWater temp
2014-Oct-09 19:30N 31°14' E 029°46'0 0.0
2014-Oct-09 16:33N 31°14' E 029°46'0 0.0
2014-Oct-09 15:22N 31°14' E 029°46'0 0.0
2014-Oct-09 13:26N 31°14' E 029°46'0 0.0
2014-Oct-09 12:30N 31°14' E 029°46'0 0.0
2014-Oct-09 11:30N 31°14' E 029°46'0 0.0
2014-Oct-08 22:33N 31°14' E 029°46'0 0.0
2014-Oct-08 21:24N 31°14' E 029°46'0 0.0
2014-Oct-08 20:10N 31°14' E 029°46'0 0.0
2014-Oct-07 19:21N 31°14' E 029°46'  
2014-Oct-03 06:22N 36°16' E 026°57'7 9.2
2014-Oct-03 05:33N 36°21' E 026°52'9 9.2
2014-Oct-03 04:33N 36°28' E 026°44'9 9.1
2014-Oct-03 03:34N 36°35' E 026°37'9 9.2
2014-Oct-03 02:33N 36°42' E 026°29'9 9.1
2014-Oct-03 01:33N 36°49' E 026°22'9 9.4
2014-Oct-03 00:33N 36°56' E 026°14'9 9.3
2014-Oct-02 23:33N 37°04' E 026°08'9 9.1
2014-Oct-02 22:33N 37°13' E 026°04'9 9.2
2014-Oct-02 21:33N 37°21' E 025°60'9 8.9
2014-Oct-02 20:33N 37°30' E 025°56'9 9.0
2014-Oct-02 19:33N 37°39' E 025°55'30 8.8
2014-Oct-02 16:09N 38°08' E 025°50'5 8.6
2014-Oct-02 15:32N 38°14' E 025°49'9 9.1
2014-Oct-02 14:33N 38°22' E 025°48'10 9.5
2014-Oct-02 13:30N 38°32' E 025°47'9 9.1
2014-Oct-02 12:33N 38°41' E 025°48'9 9.4
2014-Oct-02 11:33N 38°50' E 025°47'9 9.2
2014-Oct-02 10:33N 38°60' E 025°47'179 8.1
2014-Oct-01 12:22N 40°55' E 028°46'7 8.3
2014-Oct-01 11:33N 40°57' E 028°55'2 2.0
2014-Oct-01 10:32N 40°58' E 028°56'0 0.0
2014-Oct-01 09:32N 40°58' E 028°56'0 0.0
2014-Oct-01 08:33N 40°58' E 028°56'0 0.0
2014-Oct-01 07:31N 40°58' E 028°56'0 0.1
2014-Oct-01 06:33N 40°58' E 028°56'  
Track history (hours):
 
Tides and Currents Weather Stations Pressure Air Temp Water Temp Dewpoint Dewpoint Depression Visibility Wind Speed Wind Dir Waves Ship Positions

Haja K

Last reported at 2014-Oct-09 19:30 UTC. Time now 2014-Oct-20 08:21 UTC.
Position N 31°14' E 029°46'.
Warning: this ship's position is 10 days out of date.

Length 131 m.

Type: Cargo ship. MMSI: 357882000.

Date/timePositionNaut miles runAvg speedWind from/ knotsBaromVisibWave heightAir tempDewpointWater temp
2014-Oct-09 19:30N 31°14' E 029°46'0 0.0
2014-Oct-09 16:33N 31°14' E 029°46'0 0.0
2014-Oct-09 15:22N 31°14' E 029°46'0 0.0
2014-Oct-09 13:26N 31°14' E 029°46'0 0.0
2014-Oct-09 12:30N 31°14' E 029°46'0 0.0
2014-Oct-09 11:30N 31°14' E 029°46'0 0.0
2014-Oct-08 22:33N 31°14' E 029°46'0 0.0
2014-Oct-08 21:24N 31°14' E 029°46'0 0.0
2014-Oct-08 20:10N 31°14' E 029°46'0 0.0
2014-Oct-07 19:21N 31°14' E 029°46'  
2014-Oct-03 06:22N 36°16' E 026°57'7 9.2
2014-Oct-03 05:33N 36°21' E 026°52'9 9.2
2014-Oct-03 04:33N 36°28' E 026°44'9 9.1
2014-Oct-03 03:34N 36°35' E 026°37'9 9.2
2014-Oct-03 02:33N 36°42' E 026°29'9 9.1
2014-Oct-03 01:33N 36°49' E 026°22'9 9.4
2014-Oct-03 00:33N 36°56' E 026°14'9 9.3
2014-Oct-02 23:33N 37°04' E 026°08'9 9.1
2014-Oct-02 22:33N 37°13' E 026°04'9 9.2
2014-Oct-02 21:33N 37°21' E 025°60'9 8.9
2014-Oct-02 20:33N 37°30' E 025°56'9 9.0
2014-Oct-02 19:33N 37°39' E 025°55'30 8.8
2014-Oct-02 16:09N 38°08' E 025°50'5 8.6
2014-Oct-02 15:32N 38°14' E 025°49'9 9.1
2014-Oct-02 14:33N 38°22' E 025°48'10 9.5
2014-Oct-02 13:30N 38°32' E 025°47'9 9.1
2014-Oct-02 12:33N 38°41' E 025°48'9 9.4
2014-Oct-02 11:33N 38°50' E 025°47'9 9.2
2014-Oct-02 10:33N 38°60' E 025°47'179 8.1
2014-Oct-01 12:22N 40°55' E 028°46'7 8.3
2014-Oct-01 11:33N 40°57' E 028°55'2 2.0
2014-Oct-01 10:32N 40°58' E 028°56'0 0.0
2014-Oct-01 09:32N 40°58' E 028°56'0 0.0
2014-Oct-01 08:33N 40°58' E 028°56'0 0.0
2014-Oct-01 07:31N 40°58' E 028°56'0 0.1
2014-Oct-01 06:33N 40°58' E 028°56'  

Dump ship's entire track history